createdAt,value
2022-09-25T00:14:49.655Z,1239.48206
2022-09-25T00:29:51.917Z,895.72369
2022-09-25T00:44:54.157Z,661.49084
2022-09-25T00:59:56.365Z,493.40714
2022-09-25T01:14:58.626Z,299.29752
2022-09-25T01:30:00.868Z,129.04494
2022-09-25T01:45:03.113Z,39.03881
2022-09-25T02:00:05.359Z,5.42206
2022-09-25T02:15:07.706Z,0
2022-09-25T02:30:09.943Z,0
2022-09-25T02:45:12.163Z,0
2022-09-25T03:00:14.481Z,0
2022-09-25T03:15:16.776Z,0
2022-09-25T03:30:19.040Z,0
2022-09-25T03:45:21.280Z,0
2022-09-25T04:00:23.533Z,0
2022-09-25T04:15:25.752Z,0
2022-09-25T04:30:27.953Z,0
2022-09-25T04:45:30.184Z,0
2022-09-25T05:00:32.405Z,0
2022-09-25T05:15:34.674Z,0
2022-09-25T05:30:36.890Z,0
2022-09-25T05:45:39.113Z,0
2022-09-25T06:00:41.320Z,0
2022-09-25T06:15:43.663Z,0
2022-09-25T06:30:46.113Z,0
2022-09-25T06:45:48.510Z,0
2022-09-25T07:00:51.134Z,0
2022-09-25T07:15:53.461Z,0
2022-09-25T07:30:55.856Z,0
2022-09-25T07:45:58.277Z,0
2022-09-25T08:01:00.786Z,0
2022-09-25T08:16:03.178Z,0
2022-09-25T08:31:05.612Z,0
2022-09-25T08:46:07.973Z,0
2022-09-25T09:01:10.414Z,0
2022-09-25T09:16:12.960Z,0
2022-09-25T09:31:15.465Z,0
2022-09-25T09:46:17.996Z,0
2022-09-25T10:01:40.297Z,0
2022-09-25T10:16:43.638Z,0
2022-09-25T10:31:45.947Z,0
2022-09-25T10:46:48.218Z,0
2022-09-25T11:01:50.698Z,0
2022-09-25T11:16:53.209Z,0
2022-09-25T11:31:55.693Z,0
2022-09-25T11:46:58.017Z,0
2022-09-25T12:02:00.375Z,0
2022-09-25T12:17:02.710Z,0
2022-09-25T12:32:04.980Z,0
2022-09-25T12:47:07.339Z,0
2022-09-25T13:02:09.667Z,0
2022-09-25T13:17:11.991Z,2.16882
2022-09-25T13:32:14.283Z,24.94146
2022-09-25T13:47:16.631Z,105.18789
2022-09-25T14:02:19.021Z,215.79784
2022-09-25T14:17:21.350Z,320.98575
2022-09-25T14:32:50.712Z,418.58273
2022-09-25T14:47:56.769Z,9843.20117
2022-09-25T15:02:59.128Z,2447.51611
2022-09-25T15:18:01.687Z,2097.25146
2022-09-25T15:33:03.958Z,1919.40796
2022-09-25T15:48:06.199Z,2891.04053
2022-09-25T16:03:08.578Z,19207.0918
2022-09-25T16:18:10.959Z,6196.32617
2022-09-25T16:33:13.263Z,18291.84961
2022-09-25T16:48:15.560Z,4571.87793
2022-09-25T17:03:17.866Z,3629.52441
2022-09-25T17:18:20.192Z,4198.84033
2022-09-25T17:33:22.521Z,5141.19385
2022-09-25T17:48:24.863Z,6313.44238
2022-09-25T18:03:27.159Z,6312.35791
2022-09-25T18:18:29.449Z,5580.38037
2022-09-25T18:33:31.758Z,5723.52246
2022-09-25T18:48:34.060Z,5171.55713
2022-09-25T19:03:40.717Z,4939.49316
2022-09-25T19:18:43.639Z,5022.99316
2022-09-25T19:33:45.920Z,6020.65137
2022-09-25T19:48:48.277Z,7003.12793
2022-09-25T20:03:50.567Z,7314.354
2022-09-25T20:18:52.884Z,7185.30908
2022-09-25T20:33:55.255Z,6642.01904
2022-09-25T20:48:57.666Z,6351.39697
2022-09-25T21:03:59.942Z,4911.29883
2022-09-25T21:19:02.393Z,5444.8291
2022-09-25T21:34:04.700Z,6022.82031
2022-09-25T21:49:06.992Z,5581.46484
2022-09-25T22:04:09.504Z,5041.42773
2022-09-25T22:19:11.891Z,4825.62988
2022-09-25T22:34:14.281Z,5753.88623
2022-09-25T22:49:16.533Z,7697.15137
2022-09-25T23:04:18.838Z,9140.50293
2022-09-25T23:19:21.154Z,9562.33887
2022-09-25T23:34:23.672Z,9052.66504
2022-09-25T23:49:25.968Z,8264.29785
